This is the latest recevied weather packets stored in our database for station/object SP6KBU-12. If no packets are shown the sender has not sent any weather packets the latest 10 day(s).
| Time | Temp. | Humidity | Pressure | Rain* | Wind** | Luminosity | Snow |
|---|---|---|---|---|---|---|---|
| 1788454290 | 20° C | 49% | 1019.3 hPa | - | - | - | - |
| 1788453409 | 20.56° C | 47% | 1019.4 hPa | - | - | - | - |
| 1788452489 | 21.67° C | 45% | 1019.4 hPa | - | - | - | - |
| 1788451632 | 21.11° C | 46% | 1019.7 hPa | - | - | - | - |
| 1788451589 | 21.11° C | 46% | 1019.7 hPa | - | - | - | - |
| 1788450689 | 21.67° C | 44% | 1019.6 hPa | - | - | - | - |
| 1788449789 | 22.22° C | 43% | 1019.9 hPa | - | - | - | - |
| 1788448889 | 21.11° C | 44% | 1020.2 hPa | - | - | - | - |
| 1788447989 | 22.22° C | 43% | 1020.2 hPa | - | - | - | - |
| 1788447088 | 22.22° C | 44% | 1020.2 hPa | - | - | - | - |
| 1788446187 | 22.78° C | 45% | 1020.3 hPa | - | - | - | - |
| 1788445287 | 22.22° C | 46% | 1020.5 hPa | - | - | - | - |
| 1788444387 | 23.33° C | 43% | 1020.5 hPa | - | - | - | - |
| 1788443487 | 23.33° C | 43% | 1020.6 hPa | - | - | - | - |
| 1788442642 | 23.89° C | 41% | 1020.5 hPa | - | - | - | - |
| 1788442587 | 23.89° C | 41% | 1020.5 hPa | - | - | - | - |
| 1788441687 | 23.33° C | 42% | 1020.5 hPa | - | - | - | - |
| 1788440787 | 23.33° C | 42% | 1020.8 hPa | - | - | - | - |
| 1788439887 | 23.33° C | 41% | 1020.8 hPa | - | - | - | - |
| 1788438987 | 22.78° C | 44% | 1020.9 hPa | - | - | - | - |
| 1788438087 | 23.33° C | 44% | 1021 hPa | - | - | - | - |
| 1788437187 | 23.89° C | 44% | 1020.9 hPa | - | - | - | - |
| 1788436287 | 24.44° C | 43% | 1021.1 hPa | - | - | - | - |
| 1788435386 | 23.89° C | 44% | 1021.1 hPa | - | - | - | - |
| 1788434486 | 23.33° C | 41% | 1021.4 hPa | - | - | - | - |
* Rain since midnight (hover to see other rain measurements)
** Current wind speed in m/s (hover to see current wind gust speed)